1MA0 weather

Jordan Hospital Heliport
Plymouth, Massachusetts, United States

Public forecast

Using degrees Fahrenheit for public forecast. Weather courtesy of forecast.io.

Closest aviation weather report (METAR) to Jordan Hospital Heliport

Closest report is Plymouth Municipal Airport, 4.1 nm (7.7 km) WSW. Retrieved 2020/08/05 12:52 UTC (14 minutes ago):

KPYM 051252Z AUTO 21007KT 10SM CLR 24/22 A2999 RMK AO2 SLP155 T02440217

Closest aviation forecast (TAF) to Jordan Hospital Heliport

Closest forecast is Cape Cod Coast Guard Air Station, 17.9 nm (33.1 km) SSE. Retrieved 2020/08/05 12:22 UTC (44 minutes ago):

TAF KFMH 051120Z 0512/0612 20020KT P6SM OVC010 FM051800 21012G20KT P6SM SCT200 FM060600 26005KT P6SM SCT150 FM061100 35004KT P6SM SCT200